sensor_id;sensor_type;location;lat;lon;timestamp;temperature;humidity
17174;DHT22;8702;48.130;-1.696;2023-04-03T00:02:02;8.20;99.90
17174;DHT22;8702;48.130;-1.696;2023-04-03T00:04:29;8.30;99.90
17174;DHT22;8702;48.130;-1.696;2023-04-03T00:06:56;8.30;99.90
17174;DHT22;8702;48.130;-1.696;2023-04-03T00:09:24;8.20;99.90
17174;DHT22;8702;48.130;-1.696;2023-04-03T00:11:51;8.20;99.90
17174;DHT22;8702;48.130;-1.696;2023-04-03T00:14:18;8.10;99.90
17174;DHT22;8702;48.130;-1.696;2023-04-03T00:16:46;8.00;99.90
17174;DHT22;8702;48.130;-1.696;2023-04-03T00:19:12;8.00;99.90
17174;DHT22;8702;48.130;-1.696;2023-04-03T00:21:40;8.00;99.90
17174;DHT22;8702;48.130;-1.696;2023-04-03T00:24:07;8.00;99.90
17174;DHT22;8702;48.130;-1.696;2023-04-03T00:26:35;7.90;99.90
17174;DHT22;8702;48.130;-1.696;2023-04-03T00:29:02;7.80;99.90
17174;DHT22;8702;48.130;-1.696;2023-04-03T00:31:29;7.80;99.90
17174;DHT22;8702;48.130;-1.696;2023-04-03T00:33:56;7.70;99.90
17174;DHT22;8702;48.130;-1.696;2023-04-03T00:36:23;7.80;99.90
17174;DHT22;8702;48.130;-1.696;2023-04-03T00:38:51;7.70;99.90
17174;DHT22;8702;48.130;-1.696;2023-04-03T00:41:18;7.70;99.90
17174;DHT22;8702;48.130;-1.696;2023-04-03T00:43:46;7.80;99.90
17174;DHT22;8702;48.130;-1.696;2023-04-03T00:46:13;7.80;99.90
17174;DHT22;8702;48.130;-1.696;2023-04-03T00:48:42;7.70;99.90
17174;DHT22;8702;48.130;-1.696;2023-04-03T00:51:12;7.70;99.90
17174;DHT22;8702;48.130;-1.696;2023-04-03T00:53:43;7.80;99.90
17174;DHT22;8702;48.130;-1.696;2023-04-03T00:56:13;7.70;99.90
17174;DHT22;8702;48.130;-1.696;2023-04-03T00:58:46;7.60;99.90
17174;DHT22;8702;48.130;-1.696;2023-04-03T01:01:20;7.60;99.90
17174;DHT22;8702;48.130;-1.696;2023-04-03T01:03:48;7.60;99.90
17174;DHT22;8702;48.130;-1.696;2023-04-03T01:06:17;7.60;99.90
17174;DHT22;8702;48.130;-1.696;2023-04-03T01:08:48;7.60;99.90
17174;DHT22;8702;48.130;-1.696;2023-04-03T01:11:16;7.60;99.90
17174;DHT22;8702;48.130;-1.696;2023-04-03T01:13:43;7.50;99.90
17174;DHT22;8702;48.130;-1.696;2023-04-03T01:16:11;7.50;99.90
17174;DHT22;8702;48.130;-1.696;2023-04-03T01:18:39;7.40;99.90
17174;DHT22;8702;48.130;-1.696;2023-04-03T01:21:36;7.40;99.90
17174;DHT22;8702;48.130;-1.696;2023-04-03T01:26:58;7.50;99.90
17174;DHT22;8702;48.130;-1.696;2023-04-03T01:29:25;7.50;99.90
17174;DHT22;8702;48.130;-1.696;2023-04-03T01:31:54;7.50;99.90
17174;DHT22;8702;48.130;-1.696;2023-04-03T01:34:22;7.50;99.90
17174;DHT22;8702;48.130;-1.696;2023-04-03T01:36:49;7.40;99.90
17174;DHT22;8702;48.130;-1.696;2023-04-03T01:39:18;7.30;99.90
17174;DHT22;8702;48.130;-1.696;2023-04-03T01:41:45;7.20;99.90
17174;DHT22;8702;48.130;-1.696;2023-04-03T01:44:13;7.20;99.90
17174;DHT22;8702;48.130;-1.696;2023-04-03T01:46:40;7.10;99.90
17174;DHT22;8702;48.130;-1.696;2023-04-03T01:49:09;7.00;99.90
17174;DHT22;8702;48.130;-1.696;2023-04-03T01:51:36;7.00;99.90
17174;DHT22;8702;48.130;-1.696;2023-04-03T01:54:03;6.90;99.90
17174;DHT22;8702;48.130;-1.696;2023-04-03T01:56:30;7.00;99.90
17174;DHT22;8702;48.130;-1.696;2023-04-03T01:58:57;7.10;99.90
17174;DHT22;8702;48.130;-1.696;2023-04-03T02:01:24;7.10;99.90
17174;DHT22;8702;48.130;-1.696;2023-04-03T02:03:52;7.10;99.90
17174;DHT22;8702;48.130;-1.696;2023-04-03T02:06:20;7.10;99.90
17174;DHT22;8702;48.130;-1.696;2023-04-03T02:08:47;7.10;99.90
17174;DHT22;8702;48.130;-1.696;2023-04-03T02:11:14;7.10;99.90
17174;DHT22;8702;48.130;-1.696;2023-04-03T02:13:41;7.10;99.90
17174;DHT22;8702;48.130;-1.696;2023-04-03T02:16:09;7.10;99.90
17174;DHT22;8702;48.130;-1.696;2023-04-03T02:26:04;6.80;99.90
17174;DHT22;8702;48.130;-1.696;2023-04-03T02:28:31;6.90;99.90
17174;DHT22;8702;48.130;-1.696;2023-04-03T02:30:58;6.80;99.90
17174;DHT22;8702;48.130;-1.696;2023-04-03T02:33:25;6.90;99.90
17174;DHT22;8702;48.130;-1.696;2023-04-03T03:33:05;6.60;99.90
17174;DHT22;8702;48.130;-1.696;2023-04-03T03:35:32;6.50;99.90
17174;DHT22;8702;48.130;-1.696;2023-04-03T03:37:59;6.40;99.90
17174;DHT22;8702;48.130;-1.696;2023-04-03T03:40:26;6.20;99.90
17174;DHT22;8702;48.130;-1.696;2023-04-03T05:06:28;5.70;99.90
17174;DHT22;8702;48.130;-1.696;2023-04-03T05:08:57;5.60;99.90
17174;DHT22;8702;48.130;-1.696;2023-04-03T05:11:24;5.60;99.90
17174;DHT22;8702;48.130;-1.696;2023-04-03T05:13:53;5.60;99.90
17174;DHT22;8702;48.130;-1.696;2023-04-03T05:16:20;5.50;99.90
17174;DHT22;8702;48.130;-1.696;2023-04-03T05:18:47;5.50;99.90
17174;DHT22;8702;48.130;-1.696;2023-04-03T05:21:14;5.50;99.90
17174;DHT22;8702;48.130;-1.696;2023-04-03T05:23:41;5.50;99.90
17174;DHT22;8702;48.130;-1.696;2023-04-03T05:26:08;5.50;99.90
17174;DHT22;8702;48.130;-1.696;2023-04-03T05:28:35;5.60;99.90
17174;DHT22;8702;48.130;-1.696;2023-04-03T05:31:03;5.60;99.90
17174;DHT22;8702;48.130;-1.696;2023-04-03T05:33:30;5.60;99.90
17174;DHT22;8702;48.130;-1.696;2023-04-03T05:36:02;5.50;99.90
17174;DHT22;8702;48.130;-1.696;2023-04-03T05:38:30;5.50;99.90
17174;DHT22;8702;48.130;-1.696;2023-04-03T05:40:57;5.50;99.90
17174;DHT22;8702;48.130;-1.696;2023-04-03T05:43:24;5.40;99.90
17174;DHT22;8702;48.130;-1.696;2023-04-03T05:45:51;5.40;99.90
17174;DHT22;8702;48.130;-1.696;2023-04-03T05:48:19;5.30;99.90
17174;DHT22;8702;48.130;-1.696;2023-04-03T05:50:46;5.30;99.90
17174;DHT22;8702;48.130;-1.696;2023-04-03T05:53:17;5.30;99.90
17174;DHT22;8702;48.130;-1.696;2023-04-03T05:55:45;5.30;99.90
17174;DHT22;8702;48.130;-1.696;2023-04-03T05:58:12;5.30;99.90
17174;DHT22;8702;48.130;-1.696;2023-04-03T06:00:39;5.30;99.90
17174;DHT22;8702;48.130;-1.696;2023-04-03T06:03:06;5.30;99.90
17174;DHT22;8702;48.130;-1.696;2023-04-03T06:05:35;5.30;99.90
17174;DHT22;8702;48.130;-1.696;2023-04-03T06:08:02;5.40;99.90
17174;DHT22;8702;48.130;-1.696;2023-04-03T06:10:29;5.40;99.90
17174;DHT22;8702;48.130;-1.696;2023-04-03T06:12:56;5.50;99.90
17174;DHT22;8702;48.130;-1.696;2023-04-03T06:15:23;5.50;99.90
17174;DHT22;8702;48.130;-1.696;2023-04-03T06:17:50;5.40;99.90
17174;DHT22;8702;48.130;-1.696;2023-04-03T06:20:17;5.40;99.90
17174;DHT22;8702;48.130;-1.696;2023-04-03T06:22:45;5.40;99.90
17174;DHT22;8702;48.130;-1.696;2023-04-03T06:25:12;5.50;99.90
17174;DHT22;8702;48.130;-1.696;2023-04-03T06:27:40;5.40;99.90
17174;DHT22;8702;48.130;-1.696;2023-04-03T06:30:08;5.50;99.90
17174;DHT22;8702;48.130;-1.696;2023-04-03T06:32:35;5.50;99.90
17174;DHT22;8702;48.130;-1.696;2023-04-03T06:35:02;5.50;99.90
17174;DHT22;8702;48.130;-1.696;2023-04-03T06:37:29;5.50;99.90
17174;DHT22;8702;48.130;-1.696;2023-04-03T06:39:58;5.50;99.90
17174;DHT22;8702;48.130;-1.696;2023-04-03T06:42:26;5.50;99.90
17174;DHT22;8702;48.130;-1.696;2023-04-03T06:44:53;5.60;99.90
17174;DHT22;8702;48.130;-1.696;2023-04-03T06:47:20;5.60;99.90
17174;DHT22;8702;48.130;-1.696;2023-04-03T06:49:47;5.60;99.90
17174;DHT22;8702;48.130;-1.696;2023-04-03T06:52:14;5.60;99.90
17174;DHT22;8702;48.130;-1.696;2023-04-03T06:54:41;5.70;99.90
17174;DHT22;8702;48.130;-1.696;2023-04-03T06:57:09;5.80;99.90
17174;DHT22;8702;48.130;-1.696;2023-04-03T06:59:36;6.70;99.90
17174;DHT22;8702;48.130;-1.696;2023-04-03T07:02:03;5.80;99.90
17174;DHT22;8702;48.130;-1.696;2023-04-03T07:04:30;5.80;99.90
17174;DHT22;8702;48.130;-1.696;2023-04-03T07:06:57;5.90;99.90
17174;DHT22;8702;48.130;-1.696;2023-04-03T07:09:24;6.00;99.90
17174;DHT22;8702;48.130;-1.696;2023-04-03T07:11:51;6.00;99.90
17174;DHT22;8702;48.130;-1.696;2023-04-03T07:14:19;6.00;99.90
17174;DHT22;8702;48.130;-1.696;2023-04-03T07:16:46;6.00;99.90
17174;DHT22;8702;48.130;-1.696;2023-04-03T07:19:13;6.00;99.90
17174;DHT22;8702;48.130;-1.696;2023-04-03T07:21:40;6.00;99.90
17174;DHT22;8702;48.130;-1.696;2023-04-03T07:24:09;6.00;99.90
17174;DHT22;8702;48.130;-1.696;2023-04-03T07:26:36;5.90;99.90
17174;DHT22;8702;48.130;-1.696;2023-04-03T07:29:03;5.90;99.90
17174;DHT22;8702;48.130;-1.696;2023-04-03T07:31:31;5.80;99.90
17174;DHT22;8702;48.130;-1.696;2023-04-03T07:33:59;5.90;99.90
17174;DHT22;8702;48.130;-1.696;2023-04-03T07:36:26;5.90;99.90
17174;DHT22;8702;48.130;-1.696;2023-04-03T07:38:53;5.90;99.90
17174;DHT22;8702;48.130;-1.696;2023-04-03T07:41:20;5.90;99.90
17174;DHT22;8702;48.130;-1.696;2023-04-03T07:43:48;5.90;99.90
17174;DHT22;8702;48.130;-1.696;2023-04-03T07:46:16;6.00;99.90
17174;DHT22;8702;48.130;-1.696;2023-04-03T07:48:45;6.00;99.90
17174;DHT22;8702;48.130;-1.696;2023-04-03T07:51:13;6.00;99.90
17174;DHT22;8702;48.130;-1.696;2023-04-03T07:53:40;6.10;99.90
17174;DHT22;8702;48.130;-1.696;2023-04-03T07:56:08;6.10;99.90
17174;DHT22;8702;48.130;-1.696;2023-04-03T07:58:35;6.10;99.90
17174;DHT22;8702;48.130;-1.696;2023-04-03T08:01:03;6.10;99.90
17174;DHT22;8702;48.130;-1.696;2023-04-03T08:03:30;6.20;99.90
17174;DHT22;8702;48.130;-1.696;2023-04-03T08:06:02;6.30;99.90
17174;DHT22;8702;48.130;-1.696;2023-04-03T08:08:30;6.40;99.90
17174;DHT22;8702;48.130;-1.696;2023-04-03T08:10:59;6.50;99.90
17174;DHT22;8702;48.130;-1.696;2023-04-03T08:13:29;6.50;99.90
17174;DHT22;8702;48.130;-1.696;2023-04-03T08:15:56;6.50;99.90
17174;DHT22;8702;48.130;-1.696;2023-04-03T08:18:24;6.60;99.90
17174;DHT22;8702;48.130;-1.696;2023-04-03T08:20:52;6.70;99.90
17174;DHT22;8702;48.130;-1.696;2023-04-03T08:23:20;6.70;99.90
17174;DHT22;8702;48.130;-1.696;2023-04-03T08:25:47;6.80;99.90
17174;DHT22;8702;48.130;-1.696;2023-04-03T08:28:14;6.90;99.90
17174;DHT22;8702;48.130;-1.696;2023-04-03T08:30:41;6.80;99.90
17174;DHT22;8702;48.130;-1.696;2023-04-03T08:33:09;6.80;99.90
17174;DHT22;8702;48.130;-1.696;2023-04-03T08:35:38;6.90;99.90
17174;DHT22;8702;48.130;-1.696;2023-04-03T08:38:06;6.90;99.90
17174;DHT22;8702;48.130;-1.696;2023-04-03T08:40:34;7.00;99.90
17174;DHT22;8702;48.130;-1.696;2023-04-03T08:43:15;6.90;99.90
17174;DHT22;8702;48.130;-1.696;2023-04-03T08:45:51;6.90;99.90
17174;DHT22;8702;48.130;-1.696;2023-04-03T08:48:20;7.00;99.90
17174;DHT22;8702;48.130;-1.696;2023-04-03T08:50:51;7.00;99.90
17174;DHT22;8702;48.130;-1.696;2023-04-03T08:53:21;6.90;99.90
17174;DHT22;8702;48.130;-1.696;2023-04-03T08:55:51;7.00;99.90
17174;DHT22;8702;48.130;-1.696;2023-04-03T08:58:21;7.00;99.90
17174;DHT22;8702;48.130;-1.696;2023-04-03T09:00:51;7.00;99.90
17174;DHT22;8702;48.130;-1.696;2023-04-03T09:03:21;7.00;99.90
17174;DHT22;8702;48.130;-1.696;2023-04-03T09:05:52;7.00;99.90
17174;DHT22;8702;48.130;-1.696;2023-04-03T09:08:23;7.00;99.90
17174;DHT22;8702;48.130;-1.696;2023-04-03T09:11:05;6.90;99.90
17174;DHT22;8702;48.130;-1.696;2023-04-03T09:13:35;6.80;99.90
17174;DHT22;8702;48.130;-1.696;2023-04-03T09:16:20;6.90;99.90
17174;DHT22;8702;48.130;-1.696;2023-04-03T09:18:51;6.90;99.90
17174;DHT22;8702;48.130;-1.696;2023-04-03T09:21:24;6.90;99.90
17174;DHT22;8702;48.130;-1.696;2023-04-03T09:23:57;7.00;99.90
17174;DHT22;8702;48.130;-1.696;2023-04-03T09:26:29;7.10;99.90
17174;DHT22;8702;48.130;-1.696;2023-04-03T09:29:02;7.10;99.90
17174;DHT22;8702;48.130;-1.696;2023-04-03T09:31:36;7.20;99.90
17174;DHT22;8702;48.130;-1.696;2023-04-03T09:34:08;7.20;99.90
17174;DHT22;8702;48.130;-1.696;2023-04-03T09:36:41;7.10;99.90
17174;DHT22;8702;48.130;-1.696;2023-04-03T09:39:11;7.10;99.90
17174;DHT22;8702;48.130;-1.696;2023-04-03T09:41:40;7.10;99.90
17174;DHT22;8702;48.130;-1.696;2023-04-03T09:44:20;7.10;99.90
17174;DHT22;8702;48.130;-1.696;2023-04-03T09:46:48;7.10;99.90
17174;DHT22;8702;48.130;-1.696;2023-04-03T09:49:15;7.10;99.90
17174;DHT22;8702;48.130;-1.696;2023-04-03T09:51:41;7.20;99.90
17174;DHT22;8702;48.130;-1.696;2023-04-03T09:54:34;7.30;99.90
17174;DHT22;8702;48.130;-1.696;2023-04-03T09:57:10;7.40;99.90
17174;DHT22;8702;48.130;-1.696;2023-04-03T09:59:45;7.40;99.90
17174;DHT22;8702;48.130;-1.696;2023-04-03T10:02:37;7.30;99.90
17174;DHT22;8702;48.130;-1.696;2023-04-03T10:05:25;7.30;99.90
17174;DHT22;8702;48.130;-1.696;2023-04-03T10:08:08;7.30;99.90
17174;DHT22;8702;48.130;-1.696;2023-04-03T10:10:35;7.30;99.90
17174;DHT22;8702;48.130;-1.696;2023-04-03T10:13:09;7.30;99.90
17174;DHT22;8702;48.130;-1.696;2023-04-03T10:15:41;7.40;99.90
17174;DHT22;8702;48.130;-1.696;2023-04-03T10:18:24;7.60;99.90
17174;DHT22;8702;48.130;-1.696;2023-04-03T10:20:54;7.70;99.90
17174;DHT22;8702;48.130;-1.696;2023-04-03T10:23:28;7.80;99.90
17174;DHT22;8702;48.130;-1.696;2023-04-03T10:26:07;7.90;99.90
17174;DHT22;8702;48.130;-1.696;2023-04-03T10:28:43;7.90;99.90
17174;DHT22;8702;48.130;-1.696;2023-04-03T10:31:16;8.10;99.90
17174;DHT22;8702;48.130;-1.696;2023-04-03T10:33:53;8.00;99.90
17174;DHT22;8702;48.130;-1.696;2023-04-03T10:36:31;7.90;99.90
17174;DHT22;8702;48.130;-1.696;2023-04-03T10:39:04;7.90;99.90
17174;DHT22;8702;48.130;-1.696;2023-04-03T10:41:46;7.90;99.90
17174;DHT22;8702;48.130;-1.696;2023-04-03T10:44:20;7.80;99.90
17174;DHT22;8702;48.130;-1.696;2023-04-03T10:46:53;7.80;99.90
17174;DHT22;8702;48.130;-1.696;2023-04-03T10:49:35;7.80;99.90
17174;DHT22;8702;48.130;-1.696;2023-04-03T10:52:14;8.00;99.90
17174;DHT22;8702;48.130;-1.696;2023-04-03T10:54:50;8.10;99.90
17174;DHT22;8702;48.130;-1.696;2023-04-03T10:57:18;8.20;99.90
17174;DHT22;8702;48.130;-1.696;2023-04-03T10:59:49;8.30;99.90
17174;DHT22;8702;48.130;-1.696;2023-04-03T11:47:54;8.60;99.90
17174;DHT22;8702;48.130;-1.696;2023-04-03T11:50:41;8.60;99.90
17174;DHT22;8702;48.130;-1.696;2023-04-03T11:53:35;8.50;99.90
17174;DHT22;8702;48.130;-1.696;2023-04-03T11:56:27;8.50;99.90
17174;DHT22;8702;48.130;-1.696;2023-04-03T11:59:19;8.60;99.90
17174;DHT22;8702;48.130;-1.696;2023-04-03T12:01:51;8.70;99.90
17174;DHT22;8702;48.130;-1.696;2023-04-03T12:04:20;8.80;99.90
17174;DHT22;8702;48.130;-1.696;2023-04-03T12:07:12;8.90;99.90
17174;DHT22;8702;48.130;-1.696;2023-04-03T12:10:01;8.80;99.90
17174;DHT22;8702;48.130;-1.696;2023-04-03T12:12:34;9.00;99.90
17174;DHT22;8702;48.130;-1.696;2023-04-03T12:18:46;9.30;99.90
17174;DHT22;8702;48.130;-1.696;2023-04-03T12:21:21;9.40;99.90
17174;DHT22;8702;48.130;-1.696;2023-04-03T12:26:51;9.50;99.90
17174;DHT22;8702;48.130;-1.696;2023-04-03T12:29:33;9.60;99.90
17174;DHT22;8702;48.130;-1.696;2023-04-03T12:32:09;9.70;99.90
17174;DHT22;8702;48.130;-1.696;2023-04-03T12:34:50;9.70;99.90
17174;DHT22;8702;48.130;-1.696;2023-04-03T12:37:35;9.70;99.90
17174;DHT22;8702;48.130;-1.696;2023-04-03T12:40:10;9.80;99.90
17174;DHT22;8702;48.130;-1.696;2023-04-03T12:43:07;9.90;99.90
17174;DHT22;8702;48.130;-1.696;2023-04-03T12:45:42;9.90;99.90
17174;DHT22;8702;48.130;-1.696;2023-04-03T12:48:15;9.90;99.90
17174;DHT22;8702;48.130;-1.696;2023-04-03T12:50:44;9.90;99.90
17174;DHT22;8702;48.130;-1.696;2023-04-03T12:53:14;10.00;99.90
17174;DHT22;8702;48.130;-1.696;2023-04-03T12:55:43;10.10;99.90
17174;DHT22;8702;48.130;-1.696;2023-04-03T12:58:14;10.20;99.90
17174;DHT22;8702;48.130;-1.696;2023-04-03T13:00:42;10.30;99.90
17174;DHT22;8702;48.130;-1.696;2023-04-03T13:03:22;10.40;99.90
17174;DHT22;8702;48.130;-1.696;2023-04-03T13:05:54;10.40;99.90
17174;DHT22;8702;48.130;-1.696;2023-04-03T13:08:23;10.50;99.90
17174;DHT22;8702;48.130;-1.696;2023-04-03T13:10:56;10.70;99.90
17174;DHT22;8702;48.130;-1.696;2023-04-03T13:13:25;10.80;99.90
17174;DHT22;8702;48.130;-1.696;2023-04-03T13:15:52;10.80;99.90
17174;DHT22;8702;48.130;-1.696;2023-04-03T13:18:29;10.80;99.90
17174;DHT22;8702;48.130;-1.696;2023-04-03T13:21:01;10.90;99.90
17174;DHT22;8702;48.130;-1.696;2023-04-03T13:23:29;10.80;99.90
17174;DHT22;8702;48.130;-1.696;2023-04-03T13:25:57;11.00;99.90
17174;DHT22;8702;48.130;-1.696;2023-04-03T13:28:29;11.10;99.90
17174;DHT22;8702;48.130;-1.696;2023-04-03T13:31:02;11.30;99.90
17174;DHT22;8702;48.130;-1.696;2023-04-03T13:33:32;11.20;99.90
17174;DHT22;8702;48.130;-1.696;2023-04-03T13:36:06;11.20;99.90
17174;DHT22;8702;48.130;-1.696;2023-04-03T13:38:34;11.30;99.90
17174;DHT22;8702;48.130;-1.696;2023-04-03T13:41:05;11.40;99.90
17174;DHT22;8702;48.130;-1.696;2023-04-03T13:43:35;11.60;99.90
17174;DHT22;8702;48.130;-1.696;2023-04-03T13:46:20;11.70;99.90
17174;DHT22;8702;48.130;-1.696;2023-04-03T13:48:50;11.90;99.90
17174;DHT22;8702;48.130;-1.696;2023-04-03T13:51:22;12.00;99.90
17174;DHT22;8702;48.130;-1.696;2023-04-03T13:53:52;12.00;99.90
17174;DHT22;8702;48.130;-1.696;2023-04-03T13:56:31;12.00;99.90
17174;DHT22;8702;48.130;-1.696;2023-04-03T13:59:21;12.00;99.90
17174;DHT22;8702;48.130;-1.696;2023-04-03T14:01:51;12.20;99.90
17174;DHT22;8702;48.130;-1.696;2023-04-03T14:04:21;12.30;99.90
17174;DHT22;8702;48.130;-1.696;2023-04-03T14:06:50;12.50;99.90
17174;DHT22;8702;48.130;-1.696;2023-04-03T17:21:48;18.90;91.00
17174;DHT22;8702;48.130;-1.696;2023-04-03T17:24:17;18.90;91.20
17174;DHT22;8702;48.130;-1.696;2023-04-03T17:26:46;19.70;90.40
17174;DHT22;8702;48.130;-1.696;2023-04-03T17:29:13;19.90;89.50
17174;DHT22;8702;48.130;-1.696;2023-04-03T17:31:40;20.10;88.80
17174;DHT22;8702;48.130;-1.696;2023-04-03T17:34:09;20.60;86.70
17174;DHT22;8702;48.130;-1.696;2023-04-03T17:36:37;20.60;88.80
17174;DHT22;8702;48.130;-1.696;2023-04-03T17:39:04;20.50;86.60
17174;DHT22;8702;48.130;-1.696;2023-04-03T17:41:31;20.00;88.20
17174;DHT22;8702;48.130;-1.696;2023-04-03T17:43:58;19.50;88.90
17174;DHT22;8702;48.130;-1.696;2023-04-03T17:46:25;19.00;89.60
17174;DHT22;8702;48.130;-1.696;2023-04-03T17:48:52;18.30;90.60
17174;DHT22;8702;48.130;-1.696;2023-04-03T17:51:22;17.90;90.70
17174;DHT22;8702;48.130;-1.696;2023-04-03T17:53:49;17.30;91.10
17174;DHT22;8702;48.130;-1.696;2023-04-03T17:56:18;17.00;91.90
17174;DHT22;8702;48.130;-1.696;2023-04-03T17:58:46;16.80;91.70
17174;DHT22;8702;48.130;-1.696;2023-04-03T18:01:15;16.60;91.70
17174;DHT22;8702;48.130;-1.696;2023-04-03T18:03:42;16.40;92.10
17174;DHT22;8702;48.130;-1.696;2023-04-03T18:06:13;16.20;92.10
17174;DHT22;8702;48.130;-1.696;2023-04-03T18:08:45;16.10;92.40
17174;DHT22;8702;48.130;-1.696;2023-04-03T18:11:13;15.90;92.60
17174;DHT22;8702;48.130;-1.696;2023-04-03T18:13:41;15.80;93.10
17174;DHT22;8702;48.130;-1.696;2023-04-03T18:16:09;15.70;92.90
17174;DHT22;8702;48.130;-1.696;2023-04-03T18:18:37;15.70;93.10
17174;DHT22;8702;48.130;-1.696;2023-04-03T18:21:05;15.60;93.20
17174;DHT22;8702;48.130;-1.696;2023-04-03T18:23:35;15.40;93.50
17174;DHT22;8702;48.130;-1.696;2023-04-03T18:26:06;15.30;93.70
17174;DHT22;8702;48.130;-1.696;2023-04-03T18:28:34;15.20;93.80
17174;DHT22;8702;48.130;-1.696;2023-04-03T18:31:02;15.10;93.80
17174;DHT22;8702;48.130;-1.696;2023-04-03T18:33:29;15.00;94.20
17174;DHT22;8702;48.130;-1.696;2023-04-03T18:35:56;14.90;94.20
17174;DHT22;8702;48.130;-1.696;2023-04-03T18:38:23;14.80;94.20
17174;DHT22;8702;48.130;-1.696;2023-04-03T18:40:51;14.60;94.30
17174;DHT22;8702;48.130;-1.696;2023-04-03T18:43:20;14.60;94.40
17174;DHT22;8702;48.130;-1.696;2023-04-03T18:45:47;14.50;94.50
17174;DHT22;8702;48.130;-1.696;2023-04-03T18:48:14;14.40;94.70
17174;DHT22;8702;48.130;-1.696;2023-04-03T18:50:41;14.40;94.80
17174;DHT22;8702;48.130;-1.696;2023-04-03T18:53:09;14.30;94.80
17174;DHT22;8702;48.130;-1.696;2023-04-03T18:55:36;14.20;95.10
17174;DHT22;8702;48.130;-1.696;2023-04-03T18:58:03;14.20;95.20
17174;DHT22;8702;48.130;-1.696;2023-04-03T19:00:32;14.10;95.30
17174;DHT22;8702;48.130;-1.696;2023-04-03T19:02:59;14.00;95.50
17174;DHT22;8702;48.130;-1.696;2023-04-03T19:05:26;13.80;95.60
17174;DHT22;8702;48.130;-1.696;2023-04-03T19:07:53;13.80;95.70
17174;DHT22;8702;48.130;-1.696;2023-04-03T19:10:21;13.70;95.90
17174;DHT22;8702;48.130;-1.696;2023-04-03T19:12:50;13.60;96.10
17174;DHT22;8702;48.130;-1.696;2023-04-03T19:15:19;13.70;96.10
17174;DHT22;8702;48.130;-1.696;2023-04-03T19:17:47;13.50;96.30
17174;DHT22;8702;48.130;-1.696;2023-04-03T19:20:15;13.40;96.40
17174;DHT22;8702;48.130;-1.696;2023-04-03T19:22:42;13.30;96.50
17174;DHT22;8702;48.130;-1.696;2023-04-03T19:25:10;13.30;96.80
17174;DHT22;8702;48.130;-1.696;2023-04-03T19:27:38;13.20;96.90
17174;DHT22;8702;48.130;-1.696;2023-04-03T19:30:07;13.20;96.80
17174;DHT22;8702;48.130;-1.696;2023-04-03T19:32:35;13.10;97.00
17174;DHT22;8702;48.130;-1.696;2023-04-03T19:35:04;13.00;96.90
17174;DHT22;8702;48.130;-1.696;2023-04-03T19:37:31;13.00;97.20
17174;DHT22;8702;48.130;-1.696;2023-04-03T19:39:58;13.00;97.30
17174;DHT22;8702;48.130;-1.696;2023-04-03T19:42:26;12.90;97.20
17174;DHT22;8702;48.130;-1.696;2023-04-03T19:44:55;12.90;97.30
17174;DHT22;8702;48.130;-1.696;2023-04-03T19:47:22;12.70;97.40
17174;DHT22;8702;48.130;-1.696;2023-04-03T19:49:49;12.70;97.60
17174;DHT22;8702;48.130;-1.696;2023-04-03T19:52:18;12.70;97.60
17174;DHT22;8702;48.130;-1.696;2023-04-03T19:54:44;12.70;97.70
17174;DHT22;8702;48.130;-1.696;2023-04-03T19:57:12;12.70;97.50
17174;DHT22;8702;48.130;-1.696;2023-04-03T19:59:39;12.60;97.60
17174;DHT22;8702;48.130;-1.696;2023-04-03T20:02:06;12.60;97.70
17174;DHT22;8702;48.130;-1.696;2023-04-03T20:04:33;12.50;97.70
17174;DHT22;8702;48.130;-1.696;2023-04-03T20:07:06;12.40;97.80
17174;DHT22;8702;48.130;-1.696;2023-04-03T20:09:34;12.50;97.70
17174;DHT22;8702;48.130;-1.696;2023-04-03T20:12:01;12.40;97.80
17174;DHT22;8702;48.130;-1.696;2023-04-03T20:14:28;12.30;97.80
17174;DHT22;8702;48.130;-1.696;2023-04-03T20:16:55;12.30;97.90
17174;DHT22;8702;48.130;-1.696;2023-04-03T20:19:22;12.30;98.00
17174;DHT22;8702;48.130;-1.696;2023-04-03T20:21:51;12.20;98.10
17174;DHT22;8702;48.130;-1.696;2023-04-03T20:24:18;12.10;98.00
17174;DHT22;8702;48.130;-1.696;2023-04-03T20:26:47;12.10;98.20
17174;DHT22;8702;48.130;-1.696;2023-04-03T20:29:14;12.00;98.20
17174;DHT22;8702;48.130;-1.696;2023-04-03T20:31:42;12.00;98.60
17174;DHT22;8702;48.130;-1.696;2023-04-03T20:34:11;11.90;99.00
17174;DHT22;8702;48.130;-1.696;2023-04-03T20:36:38;11.90;98.90
17174;DHT22;8702;48.130;-1.696;2023-04-03T20:39:05;11.80;98.90
17174;DHT22;8702;48.130;-1.696;2023-04-03T20:41:33;11.70;99.20
17174;DHT22;8702;48.130;-1.696;2023-04-03T20:44:03;11.70;99.10
17174;DHT22;8702;48.130;-1.696;2023-04-03T20:46:31;11.50;99.30
17174;DHT22;8702;48.130;-1.696;2023-04-03T20:48:58;11.50;99.60
17174;DHT22;8702;48.130;-1.696;2023-04-03T20:51:25;11.50;99.60
17174;DHT22;8702;48.130;-1.696;2023-04-03T20:53:53;11.50;99.50
17174;DHT22;8702;48.130;-1.696;2023-04-03T20:56:21;11.50;99.50
17174;DHT22;8702;48.130;-1.696;2023-04-03T20:58:48;11.40;99.60
17174;DHT22;8702;48.130;-1.696;2023-04-03T21:01:18;11.40;99.60
17174;DHT22;8702;48.130;-1.696;2023-04-03T21:03:47;11.40;99.70
17174;DHT22;8702;48.130;-1.696;2023-04-03T21:20:54;11.00;99.90
17174;DHT22;8702;48.130;-1.696;2023-04-03T21:23:21;10.90;99.90
17174;DHT22;8702;48.130;-1.696;2023-04-03T21:25:49;10.90;99.90
17174;DHT22;8702;48.130;-1.696;2023-04-03T21:28:16;10.90;99.90
17174;DHT22;8702;48.130;-1.696;2023-04-03T21:30:44;10.80;99.90
17174;DHT22;8702;48.130;-1.696;2023-04-03T21:33:10;10.90;99.90
17174;DHT22;8702;48.130;-1.696;2023-04-03T21:35:38;10.80;99.90
17174;DHT22;8702;48.130;-1.696;2023-04-03T21:38:06;10.80;99.90
17174;DHT22;8702;48.130;-1.696;2023-04-03T21:40:33;10.70;99.90
17174;DHT22;8702;48.130;-1.696;2023-04-03T21:43:00;10.70;99.90
17174;DHT22;8702;48.130;-1.696;2023-04-03T21:45:29;10.70;99.90
17174;DHT22;8702;48.130;-1.696;2023-04-03T21:47:56;10.60;99.90
17174;DHT22;8702;48.130;-1.696;2023-04-03T21:50:24;10.60;99.90
17174;DHT22;8702;48.130;-1.696;2023-04-03T21:52:53;10.50;99.90
17174;DHT22;8702;48.130;-1.696;2023-04-03T21:55:21;10.50;99.90
17174;DHT22;8702;48.130;-1.696;2023-04-03T21:57:50;10.60;99.90
17174;DHT22;8702;48.130;-1.696;2023-04-03T22:00:19;10.60;99.90
17174;DHT22;8702;48.130;-1.696;2023-04-03T22:02:47;10.50;99.90
17174;DHT22;8702;48.130;-1.696;2023-04-03T22:05:14;10.50;99.90
17174;DHT22;8702;48.130;-1.696;2023-04-03T22:07:43;10.40;99.90
17174;DHT22;8702;48.130;-1.696;2023-04-03T22:10:11;10.30;99.90
17174;DHT22;8702;48.130;-1.696;2023-04-03T22:12:40;10.20;99.90
17174;DHT22;8702;48.130;-1.696;2023-04-03T22:15:08;10.30;99.90
17174;DHT22;8702;48.130;-1.696;2023-04-03T22:17:35;10.30;99.90
17174;DHT22;8702;48.130;-1.696;2023-04-03T22:20:03;10.30;99.90
17174;DHT22;8702;48.130;-1.696;2023-04-03T22:22:30;10.20;99.90
17174;DHT22;8702;48.130;-1.696;2023-04-03T22:24:57;10.30;99.90
17174;DHT22;8702;48.130;-1.696;2023-04-03T22:27:25;10.20;99.90
17174;DHT22;8702;48.130;-1.696;2023-04-03T22:29:52;10.10;99.90
17174;DHT22;8702;48.130;-1.696;2023-04-03T22:32:19;10.10;99.90
17174;DHT22;8702;48.130;-1.696;2023-04-03T22:34:46;10.00;99.90
17174;DHT22;8702;48.130;-1.696;2023-04-03T22:37:13;10.00;99.90
17174;DHT22;8702;48.130;-1.696;2023-04-03T22:39:40;9.90;99.90
17174;DHT22;8702;48.130;-1.696;2023-04-03T22:42:07;9.80;99.90
17174;DHT22;8702;48.130;-1.696;2023-04-03T22:44:35;9.90;99.90
17174;DHT22;8702;48.130;-1.696;2023-04-03T22:47:02;9.90;99.90